sensor_id;sensor_type;location;lat;lon;timestamp;P1;durP1;ratioP1;P2;durP2;ratioP2
1204;SDS011;592;48.764;9.174;2024-03-08T08:00:30;19.20;;;9.67;;
1204;SDS011;592;48.764;9.174;2024-03-08T08:02:57;18.80;;;9.53;;
1204;SDS011;592;48.764;9.174;2024-03-08T08:05:24;17.03;;;8.80;;
1204;SDS011;592;48.764;9.174;2024-03-08T08:07:52;12.63;;;7.97;;
1204;SDS011;592;48.764;9.174;2024-03-08T08:10:19;19.23;;;9.80;;
1204;SDS011;592;48.764;9.174;2024-03-08T08:12:47;23.20;;;9.87;;
1204;SDS011;592;48.764;9.174;2024-03-08T09:14:10;14.77;;;8.17;;
1204;SDS011;592;48.764;9.174;2024-03-08T09:33:02;19.63;;;10.13;;
1204;SDS011;592;48.764;9.174;2024-03-08T09:35:50;14.03;;;8.00;;
1204;SDS011;592;48.764;9.174;2024-03-08T09:38:25;13.60;;;7.70;;
1204;SDS011;592;48.764;9.174;2024-03-08T09:41:10;14.00;;;8.20;;
1204;SDS011;592;48.764;9.174;2024-03-08T10:04:01;19.23;;;8.67;;
1204;SDS011;592;48.764;9.174;2024-03-08T10:26:28;14.30;;;7.83;;
1204;SDS011;592;48.764;9.174;2024-03-08T10:28:56;15.77;;;8.53;;
1204;SDS011;592;48.764;9.174;2024-03-08T10:31:23;15.83;;;7.60;;
1204;SDS011;592;48.764;9.174;2024-03-08T10:33:52;18.73;;;9.77;;
1204;SDS011;592;48.764;9.174;2024-03-08T10:36:19;18.47;;;9.03;;
1204;SDS011;592;48.764;9.174;2024-03-08T10:38:46;14.63;;;7.67;;
1204;SDS011;592;48.764;9.174;2024-03-08T10:41:13;19.33;;;8.10;;
1204;SDS011;592;48.764;9.174;2024-03-08T10:43:47;27.30;;;8.87;;
1204;SDS011;592;48.764;9.174;2024-03-08T10:46:51;10.77;;;6.97;;
1204;SDS011;592;48.764;9.174;2024-03-08T10:49:30;14.97;;;7.70;;
1204;SDS011;592;48.764;9.174;2024-03-08T10:51:59;19.77;;;8.33;;
1204;SDS011;592;48.764;9.174;2024-03-08T10:55:04;17.60;;;8.60;;
1204;SDS011;592;48.764;9.174;2024-03-08T10:57:37;13.07;;;7.30;;
1204;SDS011;592;48.764;9.174;2024-03-08T11:00:08;16.27;;;7.13;;
1204;SDS011;592;48.764;9.174;2024-03-08T11:02:36;19.53;;;8.50;;
1204;SDS011;592;48.764;9.174;2024-03-08T11:05:03;18.17;;;7.87;;
1204;SDS011;592;48.764;9.174;2024-03-08T11:07:33;20.63;;;9.07;;
1204;SDS011;592;48.764;9.174;2024-03-08T11:10:02;16.30;;;8.90;;
1204;SDS011;592;48.764;9.174;2024-03-08T11:12:35;18.63;;;7.30;;
1204;SDS011;592;48.764;9.174;2024-03-08T11:17:45;13.77;;;8.30;;
1204;SDS011;592;48.764;9.174;2024-03-08T11:22:49;21.43;;;9.13;;
1204;SDS011;592;48.764;9.174;2024-03-08T11:25:33;15.03;;;7.93;;
1204;SDS011;592;48.764;9.174;2024-03-08T11:28:08;15.60;;;7.73;;
1204;SDS011;592;48.764;9.174;2024-03-08T11:30:42;21.77;;;7.93;;
1204;SDS011;592;48.764;9.174;2024-03-08T11:33:12;15.30;;;8.70;;
1204;SDS011;592;48.764;9.174;2024-03-08T11:35:39;19.67;;;10.00;;
1204;SDS011;592;48.764;9.174;2024-03-08T11:38:12;13.10;;;8.00;;
1204;SDS011;592;48.764;9.174;2024-03-08T11:40:41;18.80;;;9.50;;
1204;SDS011;592;48.764;9.174;2024-03-08T11:43:08;20.40;;;9.10;;
1204;SDS011;592;48.764;9.174;2024-03-08T11:45:35;18.07;;;9.13;;
1204;SDS011;592;48.764;9.174;2024-03-08T11:48:02;17.33;;;8.53;;
1204;SDS011;592;48.764;9.174;2024-03-08T11:50:31;13.03;;;7.30;;
1204;SDS011;592;48.764;9.174;2024-03-08T11:53:02;14.50;;;8.27;;
1204;SDS011;592;48.764;9.174;2024-03-08T11:55:30;18.33;;;9.07;;
1204;SDS011;592;48.764;9.174;2024-03-08T11:58:01;13.93;;;7.20;;
1204;SDS011;592;48.764;9.174;2024-03-08T12:00:29;15.97;;;8.90;;
1204;SDS011;592;48.764;9.174;2024-03-08T12:03:03;19.47;;;9.40;;
1204;SDS011;592;48.764;9.174;2024-03-08T12:05:32;17.10;;;8.90;;
1204;SDS011;592;48.764;9.174;2024-03-08T12:08:00;13.60;;;8.90;;
1204;SDS011;592;48.764;9.174;2024-03-08T12:10:27;18.30;;;9.40;;
1204;SDS011;592;48.764;9.174;2024-03-08T12:12:55;12.77;;;7.27;;
1204;SDS011;592;48.764;9.174;2024-03-08T12:15:24;13.53;;;7.17;;
1204;SDS011;592;48.764;9.174;2024-03-08T12:23:18;13.30;;;7.87;;
1204;SDS011;592;48.764;9.174;2024-03-08T12:25:45;16.00;;;9.33;;
1204;SDS011;592;48.764;9.174;2024-03-08T12:28:15;18.53;;;8.47;;
1204;SDS011;592;48.764;9.174;2024-03-08T12:30:46;19.70;;;8.50;;
1204;SDS011;592;48.764;9.174;2024-03-08T12:33:14;20.80;;;8.20;;
1204;SDS011;592;48.764;9.174;2024-03-08T12:35:50;16.97;;;8.50;;
1204;SDS011;592;48.764;9.174;2024-03-08T12:38:21;18.00;;;9.30;;
1204;SDS011;592;48.764;9.174;2024-03-08T12:40:50;14.50;;;8.13;;
1204;SDS011;592;48.764;9.174;2024-03-08T12:43:18;16.57;;;8.50;;
1204;SDS011;592;48.764;9.174;2024-03-08T12:45:45;14.50;;;8.00;;
1204;SDS011;592;48.764;9.174;2024-03-08T12:48:13;15.57;;;8.30;;
1204;SDS011;592;48.764;9.174;2024-03-08T12:50:40;20.03;;;8.10;;
1204;SDS011;592;48.764;9.174;2024-03-08T12:53:08;16.20;;;8.50;;
1204;SDS011;592;48.764;9.174;2024-03-08T12:55:37;21.80;;;9.30;;
1204;SDS011;592;48.764;9.174;2024-03-08T12:58:04;13.37;;;8.10;;
1204;SDS011;592;48.764;9.174;2024-03-08T13:06:31;15.73;;;8.90;;
1204;SDS011;592;48.764;9.174;2024-03-08T13:08:58;20.83;;;9.10;;
1204;SDS011;592;48.764;9.174;2024-03-08T13:11:31;16.13;;;8.77;;
1204;SDS011;592;48.764;9.174;2024-03-08T13:14:01;13.50;;;8.10;;
1204;SDS011;592;48.764;9.174;2024-03-08T13:16:32;17.40;;;9.53;;
1204;SDS011;592;48.764;9.174;2024-03-08T13:19:00;17.47;;;8.60;;
1204;SDS011;592;48.764;9.174;2024-03-08T13:21:27;15.67;;;8.17;;
1204;SDS011;592;48.764;9.174;2024-03-08T13:23:55;18.80;;;8.37;;
1204;SDS011;592;48.764;9.174;2024-03-08T13:26:24;24.50;;;9.63;;
1204;SDS011;592;48.764;9.174;2024-03-08T13:28:56;17.17;;;9.10;;
1204;SDS011;592;48.764;9.174;2024-03-08T13:31:23;17.50;;;8.50;;
1204;SDS011;592;48.764;9.174;2024-03-08T13:33:50;21.47;;;10.10;;
1204;SDS011;592;48.764;9.174;2024-03-08T13:36:22;21.73;;;10.20;;
1204;SDS011;592;48.764;9.174;2024-03-08T13:38:54;15.93;;;8.43;;
1204;SDS011;592;48.764;9.174;2024-03-08T13:41:21;17.50;;;9.23;;
1204;SDS011;592;48.764;9.174;2024-03-08T13:43:49;15.17;;;9.17;;
1204;SDS011;592;48.764;9.174;2024-03-08T13:46:19;21.70;;;9.87;;
1204;SDS011;592;48.764;9.174;2024-03-08T13:48:46;14.87;;;8.57;;
1204;SDS011;592;48.764;9.174;2024-03-08T13:51:13;20.17;;;9.03;;
1204;SDS011;592;48.764;9.174;2024-03-08T13:53:42;15.43;;;8.47;;
1204;SDS011;592;48.764;9.174;2024-03-08T13:56:09;13.63;;;8.20;;
1204;SDS011;592;48.764;9.174;2024-03-08T13:58:36;18.10;;;9.30;;
1204;SDS011;592;48.764;9.174;2024-03-08T14:01:05;16.80;;;8.97;;
1204;SDS011;592;48.764;9.174;2024-03-08T14:03:38;16.60;;;9.13;;
1204;SDS011;592;48.764;9.174;2024-03-08T14:06:06;18.00;;;9.47;;
1204;SDS011;592;48.764;9.174;2024-03-08T14:08:34;16.67;;;9.77;;
1204;SDS011;592;48.764;9.174;2024-03-08T14:11:03;16.17;;;8.80;;
1204;SDS011;592;48.764;9.174;2024-03-08T14:13:36;20.80;;;7.60;;
1204;SDS011;592;48.764;9.174;2024-03-08T14:16:07;15.67;;;8.90;;
1204;SDS011;592;48.764;9.174;2024-03-08T14:18:35;22.70;;;9.83;;
1204;SDS011;592;48.764;9.174;2024-03-08T14:21:03;19.80;;;10.33;;
1204;SDS011;592;48.764;9.174;2024-03-08T14:23:33;15.90;;;8.10;;
1204;SDS011;592;48.764;9.174;2024-03-08T14:26:00;17.90;;;10.43;;
1204;SDS011;592;48.764;9.174;2024-03-08T14:28:28;13.77;;;8.07;;
1204;SDS011;592;48.764;9.174;2024-03-08T14:30:54;18.50;;;9.50;;
1204;SDS011;592;48.764;9.174;2024-03-08T14:33:23;18.30;;;9.60;;
1204;SDS011;592;48.764;9.174;2024-03-08T14:35:50;16.77;;;9.87;;
1204;SDS011;592;48.764;9.174;2024-03-08T14:38:20;16.00;;;9.20;;
1204;SDS011;592;48.764;9.174;2024-03-08T14:40:47;22.13;;;9.67;;
1204;SDS011;592;48.764;9.174;2024-03-08T14:43:13;23.47;;;9.13;;
1204;SDS011;592;48.764;9.174;2024-03-08T14:45:41;17.33;;;9.13;;
1204;SDS011;592;48.764;9.174;2024-03-08T14:48:12;18.87;;;8.50;;
1204;SDS011;592;48.764;9.174;2024-03-08T14:50:39;15.60;;;9.50;;
1204;SDS011;592;48.764;9.174;2024-03-08T14:53:08;20.13;;;10.60;;
1204;SDS011;592;48.764;9.174;2024-03-08T14:55:37;20.03;;;10.33;;
1204;SDS011;592;48.764;9.174;2024-03-08T14:58:04;16.97;;;9.93;;
1204;SDS011;592;48.764;9.174;2024-03-08T15:00:30;19.53;;;10.53;;
1204;SDS011;592;48.764;9.174;2024-03-08T15:02:59;14.87;;;9.37;;
1204;SDS011;592;48.764;9.174;2024-03-08T15:05:29;18.00;;;9.60;;
1204;SDS011;592;48.764;9.174;2024-03-08T15:07:57;20.37;;;10.30;;
1204;SDS011;592;48.764;9.174;2024-03-08T15:10:26;16.90;;;9.07;;
1204;SDS011;592;48.764;9.174;2024-03-08T15:12:55;18.00;;;9.13;;
1204;SDS011;592;48.764;9.174;2024-03-08T15:15:24;15.93;;;9.90;;
1204;SDS011;592;48.764;9.174;2024-03-08T15:17:55;25.30;;;10.53;;
1204;SDS011;592;48.764;9.174;2024-03-08T15:20:23;16.97;;;10.03;;
1204;SDS011;592;48.764;9.174;2024-03-08T15:22:50;19.07;;;9.70;;
1204;SDS011;592;48.764;9.174;2024-03-08T15:25:19;15.33;;;9.10;;
1204;SDS011;592;48.764;9.174;2024-03-08T15:27:50;20.50;;;10.10;;
1204;SDS011;592;48.764;9.174;2024-03-08T15:30:19;16.30;;;10.10;;
1204;SDS011;592;48.764;9.174;2024-03-08T15:32:48;18.93;;;10.57;;
1204;SDS011;592;48.764;9.174;2024-03-08T15:35:16;20.00;;;9.57;;
1204;SDS011;592;48.764;9.174;2024-03-08T15:37:43;17.37;;;9.70;;
1204;SDS011;592;48.764;9.174;2024-03-08T15:40:11;13.97;;;9.20;;
1204;SDS011;592;48.764;9.174;2024-03-08T15:42:46;25.07;;;11.07;;
1204;SDS011;592;48.764;9.174;2024-03-08T15:45:14;19.73;;;8.60;;
1204;SDS011;592;48.764;9.174;2024-03-08T15:47:42;18.47;;;10.67;;
1204;SDS011;592;48.764;9.174;2024-03-08T15:50:09;19.70;;;9.67;;
1204;SDS011;592;48.764;9.174;2024-03-08T15:52:39;17.73;;;10.23;;
1204;SDS011;592;48.764;9.174;2024-03-08T15:55:06;16.00;;;9.83;;
1204;SDS011;592;48.764;9.174;2024-03-08T15:57:36;19.50;;;9.83;;
1204;SDS011;592;48.764;9.174;2024-03-08T16:08:00;19.87;;;9.60;;
1204;SDS011;592;48.764;9.174;2024-03-08T16:10:39;18.57;;;10.40;;
1204;SDS011;592;48.764;9.174;2024-03-08T16:17:10;20.40;;;10.33;;
1204;SDS011;592;48.764;9.174;2024-03-08T16:19:37;19.63;;;9.03;;
1204;SDS011;592;48.764;9.174;2024-03-08T16:28:11;13.33;;;8.60;;
1204;SDS011;592;48.764;9.174;2024-03-08T17:11:17;13.63;;;7.93;;
1204;SDS011;592;48.764;9.174;2024-03-08T17:13:47;12.37;;;7.67;;
1204;SDS011;592;48.764;9.174;2024-03-08T17:16:18;15.50;;;7.97;;
1204;SDS011;592;48.764;9.174;2024-03-08T17:21:56;13.97;;;7.93;;
1204;SDS011;592;48.764;9.174;2024-03-08T17:24:48;20.90;;;8.33;;
1204;SDS011;592;48.764;9.174;2024-03-08T18:00:26;13.40;;;8.00;;
1204;SDS011;592;48.764;9.174;2024-03-08T18:10:07;14.60;;;8.00;;
1204;SDS011;592;48.764;9.174;2024-03-08T18:13:01;11.90;;;7.40;;
1204;SDS011;592;48.764;9.174;2024-03-08T18:22:34;20.00;;;8.07;;
1204;SDS011;592;48.764;9.174;2024-03-08T18:25:40;17.63;;;9.13;;
1204;SDS011;592;48.764;9.174;2024-03-08T18:28:42;12.57;;;7.33;;
1204;SDS011;592;48.764;9.174;2024-03-08T19:23:10;12.93;;;6.47;;
1204;SDS011;592;48.764;9.174;2024-03-08T19:25:55;9.97;;;6.10;;
1204;SDS011;592;48.764;9.174;2024-03-08T19:28:57;13.87;;;6.60;;
1204;SDS011;592;48.764;9.174;2024-03-08T19:32:38;10.50;;;6.20;;
1204;SDS011;592;48.764;9.174;2024-03-08T19:35:58;15.13;;;6.23;;
1204;SDS011;592;48.764;9.174;2024-03-08T21:31:07;11.10;;;5.47;;
1204;SDS011;592;48.764;9.174;2024-03-08T21:34:41;8.43;;;4.90;;
1204;SDS011;592;48.764;9.174;2024-03-08T21:41:39;10.07;;;7.00;;
1204;SDS011;592;48.764;9.174;2024-03-08T23:51:13;12.70;;;5.53;;
1204;SDS011;592;48.764;9.174;2024-03-08T23:56:59;12.70;;;6.90;;
1204;SDS011;592;48.764;9.174;2024-03-08T23:59:47;10.60;;;6.20;;
